aviador You're here:

KFCS Decoded Metar

FORT CARSON in CO, USA
Report Time2018-04-26 12:58:00
UTC Time2018-04-26 13:25:33
Flight Rules vfr VFR
Wind340° at 34 Gusting to 46 kt
W.Decomp.*RWY 31: 32.3 kt HW 10.5 kt RCW
RWY 04: 10.5 kt HW 32.3 kt LCW
W.Rank340° ranks 2
Current wind is above 340° avg. (8.8)
Visibility9999 m
Phenomena:N/A
Clouds:N/A
Expected CloudBase > 5,200 ft AGL from Temp-Dew spread
CeilingNone
Temp08°C (ISA +5)
Dew Point-5°C (40% RH)
AAT-6.8°C
QNH1020 hPa
Density Alt6,250 ft
Elevation5,869 ft
Report Wrong Elevation
Raw Report
KFCS 261258Z AUTO 34034G46KT 10SM CLR 08/M05 A3013 RMK AO2 PK WND
35050/18 SLP186 T00811050 $=

Extra information for KFCS:More info

Metar Taf Metar & Taf Last 4 Metars F.Rules Stats Wind Profile Meteogram Temp Stats Airport Information Weather charts Add Link Nearby VenuesMetar ALERT Operation Metar Decoded Social comments

AIRNAV info for KFCS